Tarentum, Pennsylvania
Current Conditions -  °F | °C
As of 1:15 PM on Thursday 29 Jan 2015 (Local Time) from KBTP Reporting Station
Overcast Overcast  
Wind Chill: 26°   Ceiling: 2100
Heat Index: 32°   Visibility: 1.7mi
Dew Point: 28°   Wind: 7mph
Humidity: 87%   Direction: 170°S
Pressure: 29.86"   Gusts: NA
Location:  40.6°N, 79.75°W
Report Text: KBTP 291815Z AUTO 17006KT 1 3/4SM OVC021 00/M02 A2986 RMK AO1 P0001
Loading
Personal Weather Stations






























Interactive Weather Map New forecast layout! Learn more

10-Day Weather Forecast

Advertisements
Track Severe Weather on mobile